Terminal Aerodrome Forecast
Issued by NWS

Home | Current Version | Previous Version | Text Only | Print | Product List | Glossary On
Versions: 1 2 3 4 5 6 7 8 9 10 11 12 13 14 15 16 17 18
000
FTUS45 KRIW 262100 AAA
TAFWRL
TAF AMD
KWRL 262124Z 2621/2718 VRB05KT P6SM VCFG SCT005 OVC025
      TEMPO 2700/2704 3SM BR BKN005
     FM270900 VRB05KT 5SM BR SCT005 BKN018
     FM271600 VRB04KT P6SM SCT100 BKN200=

USA.gov is the U.S. government's official web portal to all federal, state and local government web resources and services.